createdAt,value
2023-11-08T00:01:48.120Z,4.07
2023-11-08T00:04:15.588Z,6.22
2023-11-08T00:06:43.751Z,5.13
2023-11-08T00:09:13.665Z,5.55
2023-11-08T00:11:42.286Z,4.30
2023-11-08T00:14:11.394Z,7.40
2023-11-08T00:16:38.812Z,6.13
2023-11-08T00:19:08.884Z,7.32
2023-11-08T00:21:36.777Z,4.70
2023-11-08T00:24:04.374Z,6.25
2023-11-08T00:26:31.756Z,4.90
2023-11-08T00:28:59.103Z,4.90
2023-11-08T00:31:26.574Z,4.25
2023-11-08T00:33:54.036Z,4.82
2023-11-08T00:36:21.857Z,4.22
2023-11-08T00:38:49.346Z,5.03
2023-11-08T00:41:16.806Z,4.55
2023-11-08T00:43:44.229Z,4.80
2023-11-08T00:46:11.721Z,4.97
2023-11-08T00:48:39.799Z,5.28
2023-11-08T00:51:07.285Z,6.45
2023-11-08T00:53:34.670Z,5.15
2023-11-08T00:56:02.349Z,5.70
2023-11-08T00:58:30.767Z,4.78
2023-11-08T01:00:58.119Z,7.32
2023-11-08T01:03:25.994Z,5.35
2023-11-08T01:05:53.470Z,4.20
2023-11-08T01:08:20.852Z,5.30
2023-11-08T01:10:50.175Z,5.05
2023-11-08T01:13:17.595Z,5.25
2023-11-08T01:15:45.312Z,4.60
2023-11-08T01:18:13.091Z,5.80
2023-11-08T01:20:42.636Z,4.65
2023-11-08T01:23:11.078Z,4.43
2023-11-08T01:25:38.468Z,5.13
2023-11-08T01:28:05.877Z,4.93
2023-11-08T01:30:34.267Z,5.15
2023-11-08T01:33:01.689Z,4.78
2023-11-08T01:35:29.225Z,5.70
2023-11-08T01:37:56.610Z,5.30
2023-11-08T01:40:23.985Z,4.53
2023-11-08T01:42:51.347Z,5.10
2023-11-08T01:45:19.749Z,5.05
2023-11-08T01:47:48.591Z,3.97
2023-11-08T01:50:16.694Z,4.95
2023-11-08T01:52:44.757Z,5.72
2023-11-08T01:55:12.158Z,3.90
2023-11-08T01:57:41.200Z,5.85
2023-11-08T02:00:10.206Z,3.80
2023-11-08T02:02:45.918Z,5.90
2023-11-08T02:05:13.513Z,4.32
2023-11-08T02:07:40.936Z,3.90
2023-11-08T02:10:10.164Z,5.03
2023-11-08T02:12:39.073Z,4.50
2023-11-08T02:15:07.339Z,4.80
2023-11-08T02:17:34.783Z,5.35
2023-11-08T02:20:05.018Z,4.85
2023-11-08T02:22:32.556Z,5.20
2023-11-08T02:25:00.513Z,3.88
2023-11-08T02:27:27.974Z,4.28
2023-11-08T02:29:55.344Z,5.15
2023-11-08T02:32:22.662Z,5.35
2023-11-08T02:34:50.305Z,4.85
2023-11-08T02:37:17.688Z,5.45
2023-11-08T02:39:45.119Z,4.13
2023-11-08T02:42:13.028Z,3.55
2023-11-08T02:44:40.481Z,3.63
2023-11-08T02:47:07.830Z,5.57
2023-11-08T02:49:35.343Z,3.47
2023-11-08T02:52:02.713Z,5.03
2023-11-08T02:54:30.153Z,4.13
2023-11-08T02:56:57.660Z,3.97
2023-11-08T02:59:25.092Z,4.22
2023-11-08T03:01:53.234Z,5.70
2023-11-08T03:04:21.498Z,3.92
2023-11-08T03:06:49.005Z,4.68
2023-11-08T03:09:16.687Z,4.03
2023-11-08T03:11:44.074Z,3.63
2023-11-08T03:14:11.427Z,5.38
2023-11-08T03:16:38.852Z,4.70
2023-11-08T03:19:10.270Z,3.67
2023-11-08T03:21:38.595Z,3.83
2023-11-08T03:24:06.464Z,3.35
2023-11-08T03:26:34.381Z,4.45
2023-11-08T03:29:01.888Z,3.28
2023-11-08T03:31:30.828Z,4.35
2023-11-08T03:33:59.632Z,4.45
2023-11-08T03:36:27.346Z,5.25
2023-11-08T03:38:57.793Z,6.32
2023-11-08T03:41:26.322Z,5.03
2023-11-08T03:43:54.129Z,4.18
2023-11-08T03:46:22.332Z,4.07
2023-11-08T03:48:54.421Z,4.10
2023-11-08T03:51:22.041Z,3.50
2023-11-08T03:53:49.464Z,2.83
2023-11-08T03:56:17.669Z,3.80
2023-11-08T03:58:45.264Z,3.85
2023-11-08T04:01:12.642Z,4.32
2023-11-08T04:03:40.204Z,3.05
2023-11-08T04:06:07.584Z,3.88
2023-11-08T04:08:35.587Z,4.15
2023-11-08T04:11:03.030Z,4.03
2023-11-08T04:13:30.394Z,4.15
2023-11-08T04:15:57.682Z,3.10
2023-11-08T04:18:25.345Z,3.40
2023-11-08T04:20:52.716Z,3.80
2023-11-08T04:23:19.968Z,2.90
2023-11-08T04:25:50.851Z,3.83
2023-11-08T04:28:21.587Z,3.50
2023-11-08T04:30:48.946Z,3.15
2023-11-08T04:33:16.565Z,4.30
2023-11-08T04:35:43.922Z,3.53
2023-11-08T04:38:11.939Z,3.38
2023-11-08T04:40:39.298Z,3.80
2023-11-08T04:43:07.329Z,3.92
2023-11-08T04:45:34.795Z,3.83
2023-11-08T04:48:02.153Z,3.78
2023-11-08T04:50:29.600Z,4.28
2023-11-08T04:52:56.953Z,4.03
2023-11-08T04:55:24.426Z,3.05
2023-11-08T04:57:52.306Z,3.70
2023-11-08T05:00:19.774Z,4.07
2023-11-08T05:02:47.113Z,3.55
2023-11-08T05:05:16.192Z,4.13
2023-11-08T05:07:48.133Z,4.13
2023-11-08T05:10:15.683Z,3.55
2023-11-08T05:12:43.102Z,3.88
2023-11-08T05:15:10.744Z,3.08
2023-11-08T05:17:39.301Z,4.45
2023-11-08T05:20:07.765Z,3.65
2023-11-08T05:22:35.582Z,3.28
2023-11-08T05:25:03.013Z,4.00
2023-11-08T05:27:30.383Z,4.03
2023-11-08T05:29:57.765Z,3.92
2023-11-08T05:32:25.744Z,4.05
2023-11-08T05:34:53.143Z,2.67
2023-11-08T05:37:20.422Z,4.13
2023-11-08T05:39:48.597Z,4.45
2023-11-08T05:42:17.451Z,4.35
2023-11-08T05:44:44.828Z,3.78
2023-11-08T05:47:12.439Z,4.65
2023-11-08T05:49:39.784Z,4.43
2023-11-08T05:52:07.267Z,3.75
2023-11-08T05:54:34.598Z,3.97
2023-11-08T05:57:02.735Z,4.57
2023-11-08T05:59:30.073Z,3.30
2023-11-08T06:01:57.367Z,4.03
2023-11-08T06:04:24.661Z,3.92
2023-11-08T06:06:52.125Z,4.38
2023-11-08T06:09:19.966Z,5.03
2023-11-08T06:11:47.473Z,4.57
2023-11-08T06:14:14.842Z,5.45
2023-11-08T06:16:43.184Z,6.63
2023-11-08T06:19:11.292Z,3.80
2023-11-08T06:21:38.904Z,5.50
2023-11-08T06:24:06.990Z,4.05
2023-11-08T06:26:34.336Z,4.95
2023-11-08T06:29:01.659Z,4.55
2023-11-08T06:31:35.895Z,4.22
2023-11-08T06:34:04.479Z,4.45
2023-11-08T06:36:32.345Z,4.63
2023-11-08T06:38:59.785Z,4.32
2023-11-08T06:41:28.194Z,4.40
2023-11-08T06:43:55.799Z,3.30
2023-11-08T06:46:23.155Z,4.05
2023-11-08T06:48:51.265Z,4.20
2023-11-08T06:51:18.640Z,5.80
2023-11-08T06:53:46.777Z,4.55
2023-11-08T06:56:14.503Z,5.78
2023-11-08T06:58:41.934Z,5.75
2023-11-08T07:01:12.192Z,3.70
2023-11-08T07:03:41.179Z,4.65
2023-11-08T07:06:08.683Z,4.47
2023-11-08T07:08:36.473Z,4.90
2023-11-08T07:11:04.037Z,5.57
2023-11-08T07:13:31.323Z,5.18
2023-11-08T07:16:00.737Z,5.88
2023-11-08T07:18:28.419Z,5.60
2023-11-08T07:20:55.917Z,11.65
2023-11-08T07:23:26.833Z,5.70
2023-11-08T07:25:55.840Z,6.78
2023-11-08T07:28:23.329Z,5.05
2023-11-08T07:30:50.741Z,5.45
2023-11-08T07:33:19.237Z,7.35
2023-11-08T07:35:47.536Z,6.50
2023-11-08T07:38:16.283Z,5.85
2023-11-08T07:40:43.739Z,4.43
2023-11-08T07:43:11.154Z,6.00
2023-11-08T07:45:38.573Z,8.02
2023-11-08T07:48:07.324Z,4.78
2023-11-08T07:50:35.440Z,6.05
2023-11-08T07:53:02.755Z,8.60
2023-11-08T07:55:30.165Z,4.40
2023-11-08T07:57:57.585Z,7.25
2023-11-08T08:00:25.512Z,4.45
2023-11-08T08:02:53.244Z,5.63
2023-11-08T08:05:21.252Z,5.50
2023-11-08T08:07:50.009Z,5.38
2023-11-08T08:10:17.449Z,7.90
2023-11-08T08:12:48.418Z,7.53
2023-11-08T08:15:18.087Z,5.40
2023-11-08T08:17:47.131Z,7.90
2023-11-08T08:20:15.094Z,5.60
2023-11-08T08:22:42.499Z,5.03
2023-11-08T08:25:12.836Z,5.38
2023-11-08T08:27:44.180Z,6.15
2023-11-08T08:30:15.384Z,5.72
2023-11-08T08:32:46.322Z,6.22
2023-11-08T08:35:14.694Z,5.20
2023-11-08T08:37:42.581Z,5.75
2023-11-08T08:40:13.470Z,5.97
2023-11-08T08:42:42.107Z,6.50
2023-11-08T08:45:10.254Z,6.38
2023-11-08T08:47:44.392Z,7.20
2023-11-08T08:50:14.200Z,8.20
2023-11-08T08:52:42.832Z,7.40
2023-11-08T08:55:10.343Z,5.55
2023-11-08T08:57:38.202Z,5.93
2023-11-08T09:00:08.974Z,7.80
2023-11-08T09:02:37.925Z,6.90
2023-11-08T09:05:06.977Z,6.50
2023-11-08T09:07:34.281Z,6.38
2023-11-08T09:10:01.972Z,6.38
2023-11-08T09:12:29.445Z,7.38
2023-11-08T09:14:56.783Z,6.85
2023-11-08T09:17:24.483Z,8.45
2023-11-08T09:19:54.782Z,7.45
2023-11-08T09:22:24.048Z,7.13
2023-11-08T09:24:51.336Z,7.78
2023-11-08T09:27:20.073Z,6.60
2023-11-08T09:29:47.412Z,6.57
2023-11-08T09:32:14.835Z,6.18
2023-11-08T09:34:42.619Z,5.95
2023-11-08T09:37:12.207Z,8.60
2023-11-08T09:39:39.712Z,8.55
2023-11-08T09:42:07.592Z,10.98
2023-11-08T09:44:36.529Z,9.00
2023-11-08T09:47:05.546Z,10.95
2023-11-08T09:49:35.603Z,9.77
2023-11-08T09:52:03.278Z,10.65
2023-11-08T09:54:30.764Z,11.88
2023-11-08T09:57:00.254Z,11.18
2023-11-08T09:59:30.466Z,12.52
2023-11-08T10:01:59.615Z,12.88
2023-11-08T10:04:32.447Z,12.25
2023-11-08T10:07:03.262Z,13.48
2023-11-08T10:09:33.241Z,14.15
2023-11-08T10:12:00.991Z,13.45
2023-11-08T10:14:40.965Z,12.00
2023-11-08T10:17:30.831Z,13.73
2023-11-08T10:19:58.570Z,12.63
2023-11-08T10:22:27.521Z,13.45
2023-11-08T10:25:01.498Z,13.60
2023-11-08T10:27:30.553Z,19.10
2023-11-08T10:30:13.582Z,18.77
2023-11-08T10:32:41.035Z,19.25
2023-11-08T10:35:22.843Z,18.08
2023-11-08T10:37:50.881Z,15.45
2023-11-08T10:40:19.169Z,16.98
2023-11-08T10:42:54.105Z,14.57
2023-11-08T10:45:22.382Z,14.77
2023-11-08T10:47:50.019Z,14.60
2023-11-08T10:50:19.238Z,13.18
2023-11-08T10:52:49.992Z,13.57
2023-11-08T10:55:17.558Z,14.80
2023-11-08T10:57:54.122Z,11.98
2023-11-08T11:00:24.152Z,12.55
2023-11-08T11:03:06.773Z,14.00
2023-11-08T11:05:38.017Z,13.63
2023-11-08T11:08:07.374Z,13.55
2023-11-08T11:10:34.818Z,12.65
2023-11-08T11:13:13.044Z,13.40
2023-11-08T11:15:47.858Z,12.60
2023-11-08T11:18:20.033Z,10.27
2023-11-08T11:21:00.641Z,8.60
2023-11-08T11:23:36.363Z,10.38
2023-11-08T11:26:05.556Z,11.10
2023-11-08T11:28:56.929Z,9.45
2023-11-08T11:31:37.377Z,9.98
2023-11-08T11:34:27.775Z,9.27
2023-11-08T11:37:07.798Z,7.80
2023-11-08T11:39:36.303Z,8.50
2023-11-08T11:42:09.103Z,7.80
2023-11-08T11:44:45.089Z,7.88
2023-11-08T11:47:19.785Z,8.85
2023-11-08T11:49:52.655Z,7.90
2023-11-08T11:52:21.892Z,8.10
2023-11-08T11:54:50.920Z,7.22
2023-11-08T11:57:20.680Z,7.60
2023-11-08T11:59:49.711Z,5.90
2023-11-08T12:02:17.782Z,6.97
2023-11-08T12:04:47.274Z,8.02
2023-11-08T12:07:16.920Z,7.32
2023-11-08T12:09:48.470Z,6.38
2023-11-08T12:12:36.601Z,7.75
2023-11-08T12:15:17.224Z,7.70
2023-11-08T12:17:52.390Z,6.70
2023-11-08T12:20:28.032Z,6.65
2023-11-08T12:22:55.700Z,6.63
2023-11-08T12:25:23.342Z,6.43
2023-11-08T12:27:55.143Z,6.63
2023-11-08T12:30:25.366Z,5.72
2023-11-08T12:32:52.984Z,5.07
2023-11-08T12:35:21.905Z,6.78
2023-11-08T12:37:49.319Z,5.50
2023-11-08T12:40:21.412Z,4.72
2023-11-08T12:42:49.744Z,4.85
2023-11-08T12:46:33.817Z,11.68
2023-11-08T12:48:18.137Z,6.45
2023-11-08T12:50:50.960Z,8.40
2023-11-08T12:53:18.472Z,6.00
2023-11-08T12:55:45.771Z,6.55
2023-11-08T12:58:23.090Z,5.45
2023-11-08T13:00:50.429Z,7.53
2023-11-08T13:03:22.090Z,8.18
2023-11-08T13:05:51.178Z,7.55
2023-11-08T13:08:19.380Z,8.55
2023-11-08T13:10:46.946Z,5.97
2023-11-08T13:13:15.424Z,7.20
2023-11-08T13:15:43.631Z,7.10
2023-11-08T13:18:12.294Z,6.75
2023-11-08T13:20:40.104Z,5.88
2023-11-08T13:23:19.539Z,5.75
2023-11-08T13:25:55.005Z,6.30
2023-11-08T13:28:22.493Z,5.38
2023-11-08T13:30:52.988Z,6.20
2023-11-08T13:33:25.680Z,5.80
2023-11-08T13:38:20.607Z,5.35
2023-11-08T13:40:47.979Z,6.05
2023-11-08T13:43:15.332Z,5.57
2023-11-08T13:45:43.054Z,5.82
2023-11-08T13:48:10.654Z,5.28
2023-11-08T13:50:38.812Z,5.43
2023-11-08T13:53:06.169Z,4.18
2023-11-08T13:55:33.571Z,5.10
2023-11-08T13:58:01.028Z,4.45
2023-11-08T14:00:28.427Z,5.53
2023-11-08T14:02:55.808Z,4.55
2023-11-08T14:05:23.305Z,4.80
2023-11-08T14:07:50.989Z,6.50
2023-11-08T14:10:18.418Z,4.82
2023-11-08T14:12:45.923Z,5.22
2023-11-08T14:15:13.537Z,4.68
2023-11-08T14:17:41.036Z,4.63
2023-11-08T14:20:09.498Z,6.07
2023-11-08T14:22:38.856Z,5.25
2023-11-08T14:25:08.233Z,4.10
2023-11-08T14:27:35.616Z,4.97
2023-11-08T14:30:03.438Z,5.68
2023-11-08T14:32:30.709Z,4.93
2023-11-08T14:34:58.151Z,4.03
2023-11-08T14:37:26.366Z,4.45
2023-11-08T14:39:54.215Z,4.22
2023-11-08T14:42:23.605Z,4.82
2023-11-08T14:44:50.999Z,4.68
2023-11-08T14:47:21.962Z,3.80
2023-11-08T14:49:49.869Z,7.20
2023-11-08T14:52:17.960Z,4.47
2023-11-08T14:54:49.048Z,3.60
2023-11-08T14:57:16.809Z,4.85
2023-11-08T14:59:44.653Z,4.30
2023-11-08T15:02:12.521Z,4.13
2023-11-08T15:04:40.007Z,5.68
2023-11-08T15:07:10.189Z,4.40
2023-11-08T15:10:00.096Z,5.03
2023-11-08T15:12:29.034Z,4.20
2023-11-08T15:14:56.649Z,3.90
2023-11-08T15:17:24.163Z,4.30
2023-11-08T15:19:51.647Z,4.50
2023-11-08T15:22:19.344Z,5.47
2023-11-08T15:24:50.821Z,4.38
2023-11-08T15:27:18.728Z,5.35
2023-11-08T15:29:46.381Z,4.85
2023-11-08T15:32:13.775Z,4.40
2023-11-08T15:34:41.232Z,4.82
2023-11-08T15:37:09.174Z,4.40
2023-11-08T15:39:36.876Z,4.25
2023-11-08T15:42:04.565Z,3.90
2023-11-08T15:44:32.046Z,4.32
2023-11-08T15:46:59.418Z,7.75
2023-11-08T15:49:27.037Z,4.40
2023-11-08T15:51:54.570Z,5.13
2023-11-08T15:54:21.897Z,4.43
2023-11-08T15:56:49.146Z,4.30
2023-11-08T15:59:16.570Z,4.65
2023-11-08T16:01:47.064Z,4.32
2023-11-08T16:04:14.658Z,4.95
2023-11-08T16:06:42.251Z,4.63
2023-11-08T16:09:11.049Z,6.85
2023-11-08T16:11:40.986Z,4.65
2023-11-08T16:14:08.861Z,4.22
2023-11-08T16:16:43.461Z,4.35
2023-11-08T16:19:11.731Z,4.05
2023-11-08T16:21:39.719Z,4.53
2023-11-08T16:24:08.417Z,4.13
2023-11-08T16:26:35.837Z,4.43
2023-11-08T16:29:09.770Z,5.00
2023-11-08T16:32:32.918Z,4.22
2023-11-08T16:34:38.138Z,4.03
2023-11-08T16:37:05.622Z,4.53
2023-11-08T16:39:32.959Z,4.68
2023-11-08T16:42:00.313Z,5.47
2023-11-08T16:44:27.590Z,4.97
2023-11-08T16:46:56.485Z,4.22
2023-11-08T16:49:23.928Z,3.92
2023-11-08T16:51:51.317Z,4.68
2023-11-08T16:54:18.923Z,5.65
2023-11-08T16:56:46.360Z,5.82
2023-11-08T16:59:13.890Z,5.32
2023-11-08T17:01:42.812Z,5.88
2023-11-08T17:04:10.409Z,5.60
2023-11-08T17:06:42.515Z,5.00
2023-11-08T17:09:10.072Z,5.33
2023-11-08T17:11:38.486Z,6.80
2023-11-08T17:14:06.036Z,5.85
2023-11-08T17:16:33.705Z,5.85
2023-11-08T17:19:01.666Z,6.47
2023-11-08T17:21:32.775Z,5.75
2023-11-08T17:24:00.839Z,5.97
2023-11-08T17:26:28.199Z,6.03
2023-11-08T17:28:55.699Z,6.30
2023-11-08T17:31:23.301Z,5.95
2023-11-08T17:33:50.912Z,8.07
2023-11-08T17:36:18.504Z,6.00
2023-11-08T17:38:47.349Z,7.05
2023-11-08T17:41:15.524Z,6.57
2023-11-08T17:43:43.069Z,7.72
2023-11-08T17:46:10.828Z,10.77
2023-11-08T17:48:38.364Z,7.10
2023-11-08T17:51:06.095Z,6.82
2023-11-08T17:53:34.871Z,7.47
2023-11-08T17:56:04.131Z,8.90
2023-11-08T17:58:31.808Z,8.52
2023-11-08T18:00:59.496Z,5.78
2023-11-08T18:03:28.489Z,7.88
2023-11-08T18:06:00.682Z,9.93
2023-11-08T18:08:28.260Z,8.48
2023-11-08T18:10:55.734Z,10.27
2023-11-08T18:13:23.277Z,9.13
2023-11-08T18:15:50.717Z,8.07
2023-11-08T18:18:19.894Z,6.38
2023-11-08T18:20:47.192Z,6.60
2023-11-08T18:23:14.613Z,7.07
2023-11-08T18:25:42.229Z,8.60
2023-11-08T18:28:09.787Z,9.82
2023-11-08T18:30:37.515Z,8.05
2023-11-08T18:33:05.154Z,8.32
2023-11-08T18:35:32.729Z,6.82
2023-11-08T18:38:00.206Z,7.18
2023-11-08T18:40:27.540Z,7.20
2023-11-08T18:42:54.917Z,7.03
2023-11-08T18:45:22.347Z,7.28
2023-11-08T18:47:49.752Z,9.18
2023-11-08T18:50:17.399Z,5.72
2023-11-08T18:52:45.130Z,6.80
2023-11-08T18:55:12.696Z,6.53
2023-11-08T18:57:40.344Z,8.27
2023-11-08T19:00:12.244Z,7.53
2023-11-08T19:02:41.150Z,10.02
2023-11-08T19:05:09.183Z,7.88
2023-11-08T19:07:36.746Z,8.45
2023-11-08T19:10:05.309Z,7.38
2023-11-08T19:12:33.451Z,8.55
2023-11-08T19:15:00.877Z,8.30
2023-11-08T19:17:28.186Z,9.00
2023-11-08T19:19:55.504Z,8.40
2023-11-08T19:22:22.943Z,9.10
2023-11-08T19:24:50.338Z,8.98
2023-11-08T19:27:19.572Z,10.23
2023-11-08T19:29:47.675Z,9.43
2023-11-08T19:32:15.054Z,7.43
2023-11-08T19:34:44.873Z,9.32
2023-11-08T19:37:12.262Z,9.90
2023-11-08T19:39:39.760Z,7.88
2023-11-08T19:42:07.411Z,10.15
2023-11-08T19:44:34.661Z,7.15
2023-11-08T19:47:02.035Z,7.75
2023-11-08T19:49:30.222Z,8.98
2023-11-08T19:51:57.793Z,7.93
2023-11-08T19:54:25.176Z,6.40
2023-11-08T19:56:52.433Z,8.20
2023-11-08T19:59:19.695Z,8.35
2023-11-08T20:01:47.517Z,9.45
2023-11-08T20:04:14.867Z,8.07
2023-11-08T20:06:42.340Z,7.43
2023-11-08T20:09:09.661Z,8.65
2023-11-08T20:11:37.807Z,7.78
2023-11-08T20:14:06.287Z,8.75
2023-11-08T20:16:33.737Z,10.35
2023-11-08T20:19:01.106Z,7.78
2023-11-08T20:21:28.422Z,9.52
2023-11-08T20:23:56.844Z,10.85
2023-11-08T20:26:25.708Z,8.63
2023-11-08T20:28:53.220Z,11.30
2023-11-08T20:31:23.479Z,8.02
2023-11-08T20:33:51.904Z,9.10
2023-11-08T20:36:21.497Z,8.38
2023-11-08T20:38:49.477Z,10.43
2023-11-08T20:41:20.984Z,10.50
2023-11-08T20:43:48.959Z,9.38
2023-11-08T20:46:18.767Z,10.73
2023-11-08T20:48:50.341Z,10.23
2023-11-08T20:51:18.640Z,9.10
2023-11-08T20:53:47.334Z,10.60
2023-11-08T20:56:15.626Z,9.88
2023-11-08T20:58:43.927Z,7.78
2023-11-08T21:01:12.396Z,11.00
2023-11-08T21:03:40.933Z,15.40
2023-11-08T21:06:08.486Z,9.15
2023-11-08T21:08:36.392Z,8.05
2023-11-08T21:11:04.699Z,10.75
2023-11-08T21:13:32.139Z,8.95
2023-11-08T21:15:59.509Z,9.32
2023-11-08T21:18:26.873Z,10.90
2023-11-08T21:20:54.258Z,12.55
2023-11-08T21:23:22.920Z,12.63
2023-11-08T21:25:59.464Z,16.38
2023-11-08T21:28:28.303Z,17.33
2023-11-08T21:30:55.852Z,16.58
2023-11-08T21:33:23.734Z,15.15
2023-11-08T21:35:51.518Z,17.40
2023-11-08T21:38:19.181Z,16.05
2023-11-08T21:40:48.345Z,15.13
2023-11-08T21:43:16.090Z,14.43
2023-11-08T21:45:46.396Z,14.05
2023-11-08T21:48:13.692Z,16.10
2023-11-08T21:50:41.161Z,13.32
2023-11-08T21:53:08.550Z,13.80
2023-11-08T21:55:36.655Z,14.20
2023-11-08T21:58:04.315Z,13.07
2023-11-08T22:00:31.725Z,10.27
2023-11-08T22:02:59.704Z,11.68
2023-11-08T22:05:29.139Z,10.75
2023-11-08T22:07:56.544Z,12.15
2023-11-08T22:10:23.868Z,13.27
2023-11-08T22:12:51.998Z,13.23
2023-11-08T22:15:20.329Z,10.82
2023-11-08T22:17:47.652Z,11.30
2023-11-08T22:20:15.111Z,11.95
2023-11-08T22:22:42.576Z,10.75
2023-11-08T22:25:10.545Z,10.73
2023-11-08T22:27:38.031Z,13.52
2023-11-08T22:30:07.312Z,11.00
2023-11-08T22:32:34.697Z,11.90
2023-11-08T22:35:02.046Z,11.77
2023-11-08T22:37:29.385Z,13.23
2023-11-08T22:39:56.740Z,10.43
2023-11-08T22:42:23.999Z,11.27
2023-11-08T22:44:51.253Z,15.23
2023-11-08T22:47:18.822Z,11.40
2023-11-08T22:49:46.522Z,10.93
2023-11-08T22:52:13.889Z,13.10
2023-11-08T22:54:41.258Z,11.20
2023-11-08T22:57:08.882Z,11.32
2023-11-08T22:59:36.174Z,10.95
2023-11-08T23:02:03.509Z,11.80
2023-11-08T23:04:30.828Z,9.20
2023-11-08T23:06:59.021Z,8.48
2023-11-08T23:09:26.356Z,10.75
2023-11-08T23:11:55.893Z,10.00
2023-11-08T23:14:23.185Z,10.43
2023-11-08T23:16:51.790Z,9.60
2023-11-08T23:19:19.284Z,12.95
2023-11-08T23:21:46.686Z,11.55
2023-11-08T23:24:14.706Z,9.13
2023-11-08T23:26:42.421Z,9.18
2023-11-08T23:29:11.111Z,9.65
2023-11-08T23:31:41.038Z,11.15
2023-11-08T23:34:10.971Z,8.52
2023-11-08T23:36:38.362Z,8.82
2023-11-08T23:39:06.936Z,10.98
2023-11-08T23:41:36.006Z,13.68
2023-11-08T23:44:04.218Z,9.88
2023-11-08T23:46:31.751Z,9.18
2023-11-08T23:48:59.270Z,9.15
2023-11-08T23:51:26.660Z,10.35
2023-11-08T23:53:54.378Z,9.85
2023-11-08T23:56:21.640Z,9.88
2023-11-08T23:58:48.917Z,9.40
